Prairie Du Rocher, Illinois
Current Conditions -  °F | °C
As of 9:15 AM on Friday 31 Oct 2014 (Local Time) from KSAR Reporting Station
Overcast Overcast  
Wind Chill: 38°   Ceiling: 2600
Heat Index: 45°   Visibility: 10mi
Dew Point: 36°   Wind: 15mph
Humidity: 70%   Direction: 340°NNW
Pressure: 30.19"   Gusts: 29mph
Location:  38.08°N, 90.1°W
Report Text: KSAR 311415Z AUTO 34013G25KT 10SM OVC026 07/02 A3019 RMK AO2 T00720020
Loading
Personal Weather Stations






























Interactive Weather Map
Tropical Storm Tracking
New forecast layout! Learn more

10-Day Weather Forecast

Advertisements
Track Severe Weather on mobile